Time;durP1;ratioP1;P1;durP2;ratioP2;P2;SDS_P1;SDS_P2;PMS_P1;PMS_P2;Temp;Humidity;BMP_temperature;BMP_pressure;BME280_temperature;BME280_humidity;BME280_pressure;Samples;Min_cycle;Max_cycle;Signal;HPM_P1;HPM_P2
2022/12/14 00:00:42;;;;;;;19.97;18.47;;;2.80;18.90;;;;;;5113180;28;20418;-59
2022/12/14 00:03:07;;;;;;;20.00;18.30;;;2.80;18.40;;;;;;5113392;28;20407;-58
2022/12/14 00:05:34;;;;;;;19.57;18.07;;;2.90;18.40;;;;;;5113327;28;20907;-58
2022/12/14 00:08:00;;;;;;;21.17;19.37;;;2.90;18.00;;;;;;5113008;28;20431;-57
2022/12/14 00:10:26;;;;;;;21.40;19.30;;;3.00;18.10;;;;;;5113388;28;20850;-58
2022/12/14 00:12:51;;;;;;;20.20;18.57;;;3.00;18.10;;;;;;5113093;28;20607;-57
2022/12/14 00:15:17;;;;;;;20.77;19.07;;;2.90;18.20;;;;;;5112784;28;20459;-57
2022/12/14 00:17:43;;;;;;;20.53;18.87;;;2.80;18.20;;;;;;5113013;28;20497;-59
2022/12/14 00:20:09;;;;;;;20.20;18.30;;;2.80;18.90;;;;;;5113210;28;20306;-59
2022/12/14 00:22:34;;;;;;;20.40;18.90;;;2.50;18.80;;;;;;5112826;28;20174;-59
2022/12/14 00:25:01;;;;;;;19.70;18.20;;;2.50;19.20;;;;;;5113112;28;20425;-57
2022/12/14 00:27:27;;;;;;;21.67;19.73;;;2.50;19.20;;;;;;5113034;28;20235;-59
2022/12/14 00:29:53;;;;;;;21.50;19.20;;;2.50;19.20;;;;;;5112665;28;20464;-59
2022/12/14 00:32:18;;;;;;;20.93;19.00;;;2.60;19.30;;;;;;5112973;28;20815;-59
2022/12/14 00:34:44;;;;;;;21.73;19.80;;;2.60;19.30;;;;;;5112634;28;20213;-58
2022/12/14 00:37:10;;;;;;;19.47;17.97;;;2.80;18.60;;;;;;5112345;28;20170;-59
2022/12/14 00:39:35;;;;;;;20.30;18.63;;;2.70;19.30;;;;;;5112784;28;20177;-59
2022/12/14 00:42:01;;;;;;;20.80;19.10;;;2.90;18.20;;;;;;5112730;28;20407;-60
2022/12/14 00:44:27;;;;;;;18.63;17.13;;;3.00;18.50;;;;;;5112378;28;20637;-59
2022/12/14 00:46:52;;;;;;;19.77;18.37;;;3.00;18.20;;;;;;5112312;28;20471;-60
2022/12/14 00:49:18;;;;;;;22.13;19.30;;;3.20;18.20;;;;;;5112686;28;20256;-59
2022/12/14 00:51:44;;;;;;;19.93;18.53;;;3.00;18.40;;;;;;5112245;28;20657;-60
2022/12/14 00:54:09;;;;;;;20.17;18.30;;;3.00;18.80;;;;;;5112288;28;20578;-59
2022/12/14 00:56:35;;;;;;;20.57;19.07;;;3.00;18.60;;;;;;5112315;28;20215;-59
2022/12/14 00:59:01;;;;;;;19.07;17.70;;;2.90;18.80;;;;;;5112086;28;20590;-60
2022/12/14 01:01:26;;;;;;;21.83;18.13;;;3.00;19.10;;;;;;5112395;28;20174;-60
2022/12/14 01:04:15;;;;;;;19.07;17.67;;;3.20;18.20;;;;;;5112154;28;20272;-60
2022/12/14 01:06:40;;;;;;;19.93;18.53;;;3.00;18.80;;;;;;5112965;28;20209;-59
2022/12/14 01:09:06;;;;;;;18.93;17.63;;;3.00;18.20;;;;;;5112120;28;20931;-59
2022/12/14 01:11:32;;;;;;;21.00;19.10;;;3.00;18.50;;;;;;5112050;28;20408;-59
2022/12/14 01:13:57;;;;;;;20.20;18.50;;;3.00;18.60;;;;;;5111779;28;20169;-59
2022/12/14 01:16:23;;;;;;;21.00;19.30;;;2.70;19.40;;;;;;5111916;28;20666;-62
2022/12/14 01:18:48;;;;;;;20.73;19.13;;;2.50;19.20;;;;;;5111879;28;20226;-59
2022/12/14 01:21:22;;;;;;;21.30;19.80;;;2.30;19.70;;;;;;5111667;28;20284;-59
2022/12/14 01:23:53;;;;;;;21.63;19.63;;;2.10;20.60;;;;;;5111766;28;20261;-59
2022/12/14 01:26:19;;;;;;;22.23;20.50;;;1.90;20.50;;;;;;5111803;28;20500;-58
2022/12/14 01:28:46;;;;;;;22.13;20.43;;;1.70;21.70;;;;;;5111338;28;20444;-60
2022/12/14 01:31:16;;;;;;;23.93;22.13;;;1.60;21.40;;;;;;5111754;28;20412;-59
2022/12/14 01:33:42;;;;;;;21.90;20.20;;;1.50;21.90;;;;;;5111696;28;20450;-59
2022/12/14 01:36:12;;;;;;;21.50;19.80;;;1.80;21.20;;;;;;5110983;28;20816;-60
2022/12/14 01:38:38;;;;;;;22.03;20.40;;;2.00;21.00;;;;;;5111772;28;20408;-59
2022/12/14 01:41:04;;;;;;;25.67;23.03;;;2.30;20.50;;;;;;5111532;28;20886;-59
2022/12/14 01:43:54;;;;;;;23.77;21.87;;;2.30;19.90;;;;;;5111188;28;20199;-60
2022/12/14 01:46:24;;;;;;;20.13;18.63;;;2.50;19.70;;;;;;5111426;28;20426;-59
2022/12/14 01:48:52;;;;;;;21.33;19.60;;;2.10;20.20;;;;;;5111234;28;20946;-51
2022/12/14 01:51:18;;;;;;;21.23;19.37;;;2.00;21.00;;;;;;5111159;28;20404;-51
2022/12/14 01:53:44;;;;;;;21.20;19.43;;;2.10;20.90;;;;;;5111442;28;20416;-50
2022/12/14 01:56:10;;;;;;;21.07;19.47;;;2.30;20.90;;;;;;5110752;28;20571;-50
2022/12/14 01:58:36;;;;;;;21.80;20.10;;;2.60;20.40;;;;;;5110889;28;20404;-47
2022/12/14 02:01:02;;;;;;;21.67;20.07;;;2.60;20.30;;;;;;5111191;28;20173;-51
2022/12/14 02:03:32;;;;;;;20.27;18.67;;;2.70;19.40;;;;;;5111309;28;20170;-51
2022/12/14 02:06:18;;;;;;;20.97;19.33;;;2.80;19.70;;;;;;5110664;28;20411;-49
2022/12/14 02:08:46;;;;;;;21.50;19.80;;;2.70;19.60;;;;;;5111105;28;20911;-59
2022/12/14 02:11:12;;;;;;;21.57;19.70;;;2.60;19.30;;;;;;5111147;28;20404;-59
2022/12/14 02:13:40;;;;;;;24.57;20.07;;;2.60;19.80;;;;;;5110823;28;20418;-58
2022/12/14 02:16:06;;;;;;;21.40;19.70;;;2.60;20.30;;;;;;5110718;28;20202;-59
2022/12/14 02:18:32;;;;;;;21.30;19.80;;;2.70;20.10;;;;;;5110952;28;20816;-59
2022/12/14 02:21:23;;;;;;;22.60;21.00;;;2.70;19.80;;;;;;5110588;28;20501;-60
2022/12/14 02:24:23;;;;;;;21.27;19.67;;;2.70;19.40;;;;;;5110801;28;20640;-60
2022/12/14 02:27:11;;;;;;;21.50;19.80;;;2.60;19.80;;;;;;5110610;28;20480;-59
2022/12/14 02:29:39;;;;;;;21.73;20.03;;;2.60;20.20;;;;;;5110710;28;20415;-59
2022/12/14 02:32:25;;;;;;;21.33;19.83;;;2.70;20.00;;;;;;5110819;28;20411;-58
2022/12/14 02:35:09;;;;;;;22.00;20.33;;;2.80;19.40;;;;;;5110474;28;20459;-59
2022/12/14 02:38:12;;;;;;;21.17;19.33;;;2.80;19.40;;;;;;5110755;28;20419;-59
2022/12/14 02:40:54;;;;;;;21.70;20.00;;;2.80;19.70;;;;;;5110929;28;20429;-60
2022/12/14 02:43:28;;;;;;;23.27;21.57;;;2.60;19.90;;;;;;5110598;28;20450;-59
2022/12/14 02:46:26;;;;;;;20.60;19.10;;;2.60;20.70;;;;;;5110586;28;20933;-59
2022/12/14 02:49:09;;;;;;;46.87;23.37;;;2.80;19.90;;;;;;5110440;28;20414;-59
2022/12/14 02:52:15;;;;;;;21.23;19.53;;;2.80;19.80;;;;;;5110649;28;20907;-59
2022/12/14 02:55:01;;;;;;;22.93;21.03;;;3.00;19.90;;;;;;5054964;28;20459;-59
2022/12/14 02:57:43;;;;;;;21.97;20.40;;;3.00;19.60;;;;;;5110487;28;20529;-59
2022/12/14 03:00:10;;;;;;;22.97;20.80;;;3.00;19.60;;;;;;5110765;28;20472;-59
2022/12/14 03:02:39;;;;;;;23.30;21.60;;;2.90;19.90;;;;;;5110568;28;20412;-60
2022/12/14 03:05:05;;;;;;;21.33;19.83;;;2.70;20.40;;;;;;5110085;28;20506;-59
2022/12/14 03:07:46;;;;;;;34.03;24.20;;;2.70;20.60;;;;;;5112364;28;20404;-59
2022/12/14 03:10:21;;;;;;;22.33;20.17;;;2.70;20.20;;;;;;5114521;28;20415;-60
2022/12/14 03:12:56;;;;;;;22.80;20.67;;;2.70;20.70;;;;;;5113985;28;20414;-59
2022/12/14 03:15:23;;;;;;;21.13;19.43;;;2.80;20.50;;;;;;5114098;28;20974;-59
2022/12/14 03:17:53;;;;;;;22.27;20.57;;;2.80;20.20;;;;;;5114168;28;21030;-58
2022/12/14 03:20:22;;;;;;;24.10;22.27;;;2.70;20.50;;;;;;5114110;28;20444;-59
2022/12/14 03:23:09;;;;;;;21.27;19.70;;;2.70;20.70;;;;;;5114113;28;20400;-59
2022/12/14 03:25:46;;;;;;;23.90;22.20;;;2.80;21.00;;;;;;5114207;28;20502;-52
2022/12/14 03:28:15;;;;;;;21.80;20.20;;;2.60;21.00;;;;;;5114066;28;20747;-50
2022/12/14 03:30:43;;;;;;;23.33;21.60;;;2.20;22.30;;;;;;5114311;28;20415;-49
2022/12/14 03:33:15;;;;;;;24.40;22.37;;;2.10;23.30;;;;;;5114017;28;20423;-47
2022/12/14 03:35:53;;;;;;;24.13;22.33;;;2.00;24.10;;;;;;5113495;28;20922;-52
2022/12/14 03:38:22;;;;;;;25.73;23.77;;;2.30;23.90;;;;;;5114195;28;20403;-52
2022/12/14 03:41:02;;;;;;;24.63;22.83;;;2.30;23.80;;;;;;5113797;28;20948;-50
2022/12/14 03:43:43;;;;;;;24.67;22.97;;;2.40;24.20;;;;;;5113754;28;20486;-48
2022/12/14 03:46:12;;;;;;;25.90;23.97;;;2.40;24.00;;;;;;5113633;28;20412;-49
2022/12/14 03:48:53;;;;;;;25.50;23.70;;;2.40;23.90;;;;;;5113687;28;20407;-49
2022/12/14 03:51:46;;;;;;;25.03;23.13;;;2.50;23.70;;;;;;5113443;28;20407;-46
2022/12/14 03:54:25;;;;;;;24.27;22.60;;;2.40;23.80;;;;;;5113823;28;20416;-48
2022/12/14 03:57:15;;;;;;;25.07;23.27;;;2.30;23.60;;;;;;5113117;28;20411;-51
2022/12/14 04:00:04;;;;;;;26.07;24.27;;;2.50;24.10;;;;;;5113580;28;20428;-52
2022/12/14 04:03:04;;;;;;;25.60;23.80;;;2.40;23.90;;;;;;5113698;28;20477;-51
2022/12/14 04:05:45;;;;;;;26.30;24.40;;;2.30;24.70;;;;;;5099408;28;20416;-50
2022/12/14 04:08:23;;;;;;;26.23;24.23;;;2.30;24.60;;;;;;5113411;28;20408;-46
2022/12/14 04:19:29;;;;;;;24.30;22.57;;;2.10;24.90;;;;;;5114264;28;20917;-51
2022/12/14 04:22:04;;;;;;;26.77;24.47;;;2.10;24.90;;;;;;5114488;28;20451;-51
2022/12/14 04:27:59;;;;;;;25.97;24.13;;;2.30;25.10;;;;;;5114330;28;20403;-52
2022/12/14 04:30:26;;;;;;;25.67;23.47;;;2.30;25.50;;;;;;5113144;28;20422;-50
2022/12/14 04:32:57;;;;;;;26.03;24.13;;;2.50;25.00;;;;;;5112888;28;20408;-53
2022/12/14 04:35:27;;;;;;;28.77;26.37;;;2.60;24.80;;;;;;5112274;28;20471;-49
2022/12/14 04:38:18;;;;;;;28.37;26.07;;;2.50;24.70;;;;;;5112767;28;20426;-51
2022/12/14 04:40:52;;;;;;;26.00;24.07;;;2.20;25.20;;;;;;5101024;28;20507;-46
2022/12/14 04:43:23;;;;;;;32.37;25.43;;;2.30;25.50;;;;;;5112741;28;20443;-48
2022/12/14 04:45:59;;;;;;;25.37;23.57;;;2.30;25.10;;;;;;5112385;28;20403;-58
2022/12/14 04:48:50;;;;;;;26.90;24.90;;;2.20;25.00;;;;;;5112319;28;20407;-59
2022/12/14 04:51:45;;;;;;;26.57;24.47;;;2.20;25.90;;;;;;5112702;28;20826;-48
2022/12/14 04:54:15;;;;;;;28.30;26.00;;;2.20;25.90;;;;;;5091013;28;20770;-53
2022/12/14 04:56:54;;;;;;;32.27;26.03;;;2.50;25.10;;;;;;5111838;28;20457;-50
2022/12/14 04:59:20;;;;;;;25.73;23.63;;;2.80;24.50;;;;;;5112490;28;20414;-50
2022/12/14 05:02:18;;;;;;;26.07;24.07;;;2.80;24.00;;;;;;5112288;28;20441;-50
2022/12/14 05:04:55;;;;;;;26.37;24.23;;;2.80;24.00;;;;;;5098389;28;20431;-50
2022/12/14 05:07:46;;;;;;;25.07;23.03;;;3.00;24.00;;;;;;5112191;28;20930;-51
2022/12/14 05:10:28;;;;;;;26.93;24.63;;;3.30;23.30;;;;;;5111921;28;20454;-46
2022/12/14 05:13:25;;;;;;;27.47;24.83;;;3.40;23.30;;;;;;5111848;28;20422;-59
2022/12/14 05:15:53;;;;;;;26.00;23.83;;;3.30;22.80;;;;;;5110322;28;20883;-59
2022/12/14 05:18:19;;;;;;;26.30;24.10;;;3.50;22.90;;;;;;5111789;28;20767;-60
2022/12/14 05:20:46;;;;;;;26.63;24.60;;;3.60;22.60;;;;;;5112103;28;20825;-60
2022/12/14 05:23:12;;;;;;;27.07;24.87;;;3.70;22.20;;;;;;5112456;28;20408;-59
2022/12/14 05:25:38;;;;;;;25.70;23.70;;;3.60;22.30;;;;;;5112115;28;21145;-59
2022/12/14 05:28:03;;;;;;;60.53;30.20;;;3.60;22.20;;;;;;5112273;28;20415;-60
2022/12/14 05:30:29;;;;;;;27.17;24.80;;;3.60;22.60;;;;;;5111689;28;20177;-59
2022/12/14 05:32:55;;;;;;;27.37;25.20;;;3.50;22.20;;;;;;5111798;28;20174;-60
2022/12/14 05:35:20;;;;;;;25.70;23.70;;;3.30;22.90;;;;;;5111718;28;20310;-60
2022/12/14 05:37:46;;;;;;;25.43;23.33;;;3.50;22.90;;;;;;5112016;28;20415;-60
2022/12/14 05:40:12;;;;;;;27.93;25.87;;;3.60;22.80;;;;;;5113196;28;20174;-59
2022/12/14 05:42:38;;;;;;;34.80;26.37;;;3.40;22.60;;;;;;5112139;28;20408;-58
2022/12/14 05:45:04;;;;;;;28.33;26.13;;;3.40;23.30;;;;;;5112448;28;20426;-51
2022/12/14 05:47:30;;;;;;;27.30;25.03;;;3.40;23.30;;;;;;5111420;28;20484;-51
2022/12/14 05:49:56;;;;;;;27.80;25.63;;;3.50;23.30;;;;;;5111755;28;20416;-51
2022/12/14 05:52:24;;;;;;;25.87;24.07;;;3.50;23.60;;;;;;5111887;28;20174;-52
2022/12/14 05:54:50;;;;;;;28.10;25.67;;;3.50;23.40;;;;;;5111494;28;20285;-47
2022/12/14 05:57:16;;;;;;;25.27;23.50;;;3.40;24.00;;;;;;5111330;28;20545;-48
2022/12/14 05:59:42;;;;;;;29.87;26.97;;;3.30;24.70;;;;;;5111564;28;20170;-59
2022/12/14 06:02:07;;;;;;;30.90;28.17;;;3.40;24.20;;;;;;5111394;28;20330;-59
2022/12/14 06:04:33;;;;;;;28.60;26.50;;;3.40;24.20;;;;;;5110469;28;20169;-59
2022/12/14 06:06:58;;;;;;;28.00;26.00;;;3.20;25.10;;;;;;5110362;28;20175;-59
2022/12/14 06:09:24;;;;;;;28.80;26.60;;;3.30;25.20;;;;;;5111301;28;20180;-59
2022/12/14 06:11:50;;;;;;;28.93;26.83;;;3.50;24.90;;;;;;5110658;28;20170;-60
2022/12/14 06:14:16;;;;;;;30.67;28.37;;;3.70;24.50;;;;;;5110880;28;20172;-60
2022/12/14 06:16:44;;;;;;;31.83;29.73;;;3.90;24.00;;;;;;5109656;28;20584;-50
2022/12/14 06:19:11;;;;;;;30.80;28.40;;;4.10;23.60;;;;;;5108850;28;20411;-49
2022/12/14 06:21:39;;;;;;;29.33;27.13;;;4.20;24.00;;;;;;5109524;28;20441;-51
2022/12/14 06:24:05;;;;;;;30.43;28.33;;;4.20;23.20;;;;;;5109287;28;20503;-52
2022/12/14 06:26:35;;;;;;;31.10;28.67;;;4.10;23.80;;;;;;5108949;28;20498;-47
2022/12/14 06:29:02;;;;;;;28.20;25.93;;;4.10;23.50;;;;;;5108503;28;20412;-50
2022/12/14 06:31:30;;;;;;;29.80;27.20;;;3.90;24.50;;;;;;5109209;28;20451;-48
2022/12/14 06:34:01;;;;;;;29.37;27.17;;;3.90;24.50;;;;;;5108564;28;20450;-47
2022/12/14 06:36:29;;;;;;;31.03;28.23;;;3.80;25.00;;;;;;5108870;28;20462;-50
2022/12/14 06:38:56;;;;;;;30.63;28.23;;;3.80;25.00;;;;;;5108749;28;20415;-49
2022/12/14 06:41:23;;;;;;;31.73;29.23;;;3.50;26.00;;;;;;5110238;28;20438;-51
2022/12/14 06:43:49;;;;;;;31.43;29.13;;;3.30;26.50;;;;;;5114765;28;20412;-49
2022/12/14 06:46:16;;;;;;;29.83;27.63;;;3.30;27.60;;;;;;5114922;28;20981;-52
2022/12/14 06:48:43;;;;;;;32.87;29.97;;;3.10;27.60;;;;;;5114628;28;20460;-49
2022/12/14 06:51:09;;;;;;;30.70;28.40;;;3.10;28.80;;;;;;5114851;28;20416;-51
2022/12/14 06:53:35;;;;;;;32.90;30.40;;;3.00;28.80;;;;;;5114861;28;20572;-50
2022/12/14 06:56:08;;;;;;;31.57;28.83;;;3.10;29.30;;;;;;5114239;28;20458;-57
2022/12/14 06:58:34;;;;;;;31.43;29.03;;;3.30;28.60;;;;;;5113899;28;20408;-54
2022/12/14 07:01:06;;;;;;;31.67;29.40;;;3.10;30.00;;;;;;5114007;28;20424;-49
2022/12/14 07:03:32;;;;;;;31.70;29.30;;;3.10;31.20;;;;;;5114009;28;20963;-49
2022/12/14 07:05:59;;;;;;;32.77;30.33;;;3.30;30.60;;;;;;5114132;28;20565;-46
2022/12/14 07:08:25;;;;;;;32.80;30.30;;;3.30;29.40;;;;;;5114649;28;20419;-48
2022/12/14 07:10:52;;;;;;;32.90;30.40;;;3.10;30.00;;;;;;5114072;28;20416;-49
2022/12/14 07:13:18;;;;;;;32.73;30.40;;;2.90;30.90;;;;;;5114476;28;20407;-51
2022/12/14 07:15:43;;;;;;;34.03;31.53;;;3.00;31.40;;;;;;5114166;28;20466;-51
2022/12/14 07:18:09;;;;;;;33.47;30.77;;;3.00;30.90;;;;;;5113908;28;20919;-50
2022/12/14 07:20:35;;;;;;;34.07;31.47;;;3.00;30.80;;;;;;5114378;28;20540;-46
2022/12/14 07:23:01;;;;;;;34.27;31.57;;;3.10;30.60;;;;;;5114167;28;20408;-52
2022/12/14 07:25:27;;;;;;;34.47;31.67;;;3.00;30.60;;;;;;5113645;28;20170;-50
2022/12/14 07:27:52;;;;;;;33.43;30.83;;;2.80;31.00;;;;;;5114031;28;20193;-48
2022/12/14 07:30:18;;;;;;;32.90;30.40;;;2.80;31.10;;;;;;5114180;28;20469;-48
2022/12/14 07:32:44;;;;;;;35.97;33.10;;;2.70;31.90;;;;;;5112817;28;20540;-44
2022/12/14 07:35:10;;;;;;;33.90;31.40;;;2.80;31.20;;;;;;5113435;28;20202;-49
2022/12/14 07:37:35;;;;;;;33.47;30.87;;;2.90;31.30;;;;;;5113729;28;20430;-48
2022/12/14 07:40:03;;;;;;;34.53;32.00;;;2.80;31.80;;;;;;5113439;28;20174;-50
2022/12/14 07:42:28;;;;;;;36.30;33.30;;;2.90;31.40;;;;;;5114172;28;20177;-49
2022/12/14 07:44:54;;;;;;;33.57;31.07;;;3.00;30.80;;;;;;5113840;28;20408;-45
2022/12/14 07:47:20;;;;;;;36.33;33.33;;;3.10;31.10;;;;;;5113683;28;20170;-48
2022/12/14 07:49:45;;;;;;;34.20;31.50;;;3.00;30.80;;;;;;5113454;28;20189;-47
2022/12/14 07:52:11;;;;;;;34.07;31.47;;;3.10;31.30;;;;;;5113796;28;20181;-51
2022/12/14 07:54:37;;;;;;;34.67;32.10;;;3.20;30.50;;;;;;5107460;28;20185;-50
2022/12/14 07:57:02;;;;;;;34.33;31.70;;;3.30;29.70;;;;;;5093262;28;20182;-47
2022/12/14 07:59:28;;;;;;;35.20;32.60;;;3.10;30.30;;;;;;5102424;28;20193;-57
2022/12/14 08:01:54;;;;;;;31.70;29.00;;;3.30;30.60;;;;;;5110826;28;20181;-57
2022/12/14 08:04:20;;;;;;;34.00;31.20;;;3.60;29.40;;;;;;5113286;28;20170;-56
2022/12/14 08:06:47;;;;;;;32.50;29.97;;;3.60;29.50;;;;;;5112213;28;20428;-55
2022/12/14 08:09:14;;;;;;;34.63;31.97;;;3.50;29.30;;;;;;5112346;28;20522;-57
2022/12/14 08:11:40;;;;;;;34.47;31.77;;;3.60;29.70;;;;;;5112957;28;20451;-59
2022/12/14 08:14:11;;;;;;;32.63;30.23;;;3.70;29.00;;;;;;5112809;28;20835;-58
2022/12/14 08:16:36;;;;;;;32.77;30.17;;;3.60;28.90;;;;;;5112873;28;20225;-57
2022/12/14 08:19:03;;;;;;;32.93;30.33;;;3.50;29.50;;;;;;5111273;28;20462;-57
2022/12/14 08:21:29;;;;;;;31.23;28.93;;;3.80;29.10;;;;;;5111349;28;20171;-59
2022/12/14 08:23:56;;;;;;;33.37;30.77;;;3.70;28.70;;;;;;5112301;28;20408;-58
2022/12/14 08:26:23;;;;;;;35.93;32.50;;;3.50;29.10;;;;;;5112965;28;20416;-55
2022/12/14 08:28:49;;;;;;;32.77;30.30;;;3.50;29.60;;;;;;5112618;28;20416;-58
2022/12/14 08:31:17;;;;;;;34.90;32.20;;;3.50;29.00;;;;;;5114155;28;20763;-58
2022/12/14 08:33:44;;;;;;;34.90;32.07;;;3.60;29.30;;;;;;5112772;28;20426;-58
2022/12/14 08:36:14;;;;;;;33.97;31.13;;;3.70;29.10;;;;;;5112627;28;20459;-58
2022/12/14 08:38:40;;;;;;;34.60;32.00;;;3.70;29.10;;;;;;5112307;28;20755;-58
2022/12/14 08:41:12;;;;;;;34.17;31.30;;;3.80;28.70;;;;;;5112509;28;20540;-57
2022/12/14 08:43:39;;;;;;;32.80;29.90;;;3.70;29.00;;;;;;5112549;28;20415;-57
2022/12/14 08:46:06;;;;;;;34.27;31.57;;;3.70;29.10;;;;;;5111668;28;20420;-58
2022/12/14 08:48:32;;;;;;;34.03;31.43;;;3.90;28.80;;;;;;5112352;28;20408;-58
2022/12/14 08:51:06;;;;;;;33.30;30.80;;;4.20;28.30;;;;;;5112015;28;20424;-58
2022/12/14 08:53:32;;;;;;;34.07;31.07;;;4.10;28.30;;;;;;5112254;28;20438;-57
2022/12/14 08:55:58;;;;;;;32.23;29.60;;;4.20;28.30;;;;;;5111393;28;20466;-58
2022/12/14 08:58:25;;;;;;;30.97;28.73;;;4.30;28.40;;;;;;5112146;28;20416;-58
2022/12/14 09:01:03;;;;;;;34.93;32.10;;;4.20;28.30;;;;;;5111817;28;20801;-59
2022/12/14 09:03:29;;;;;;;33.37;30.57;;;4.10;28.40;;;;;;5112069;28;20430;-59
2022/12/14 09:05:54;;;;;;;34.73;32.03;;;4.00;29.30;;;;;;5110634;28;20424;-58
2022/12/14 09:08:21;;;;;;;39.27;36.03;;;3.90;29.20;;;;;;5107253;28;20569;-57
2022/12/14 09:10:50;;;;;;;34.40;31.30;;;3.60;31.00;;;;;;5101872;28;20223;-55
2022/12/14 09:13:16;;;;;;;36.63;33.70;;;3.60;31.20;;;;;;5110243;28;20427;-57
2022/12/14 09:15:42;;;;;;;35.93;32.93;;;3.50;31.30;;;;;;5111126;28;20464;-56
2022/12/14 09:18:08;;;;;;;39.27;35.97;;;3.50;32.10;;;;;;5111559;28;20446;-57
2022/12/14 09:20:33;;;;;;;35.73;32.93;;;3.50;32.50;;;;;;5111727;28;20204;-57
2022/12/14 09:22:59;;;;;;;37.20;34.30;;;3.50;33.00;;;;;;5111345;28;20416;-58
2022/12/14 09:25:25;;;;;;;36.57;33.60;;;3.70;32.70;;;;;;5111290;28;20174;-58
2022/12/14 09:27:50;;;;;;;35.43;32.43;;;3.90;31.70;;;;;;5111250;28;20174;-57
2022/12/14 09:30:16;;;;;;;34.67;32.13;;;3.80;31.70;;;;;;5111002;28;20577;-56
2022/12/14 09:32:45;;;;;;;35.47;32.57;;;3.80;31.80;;;;;;5111330;28;20170;-58
2022/12/14 09:35:11;;;;;;;38.00;34.90;;;3.90;31.50;;;;;;5110715;28;20517;-58
2022/12/14 09:37:37;;;;;;;35.40;32.27;;;3.90;31.70;;;;;;5111741;28;20928;-57
2022/12/14 09:40:04;;;;;;;36.47;33.30;;;3.90;31.40;;;;;;5111037;28;20186;-49
2022/12/14 09:42:56;;;;;;;38.43;34.93;;;3.80;31.90;;;;;;5108969;28;20460;-48
2022/12/14 09:45:40;;;;;;;37.30;34.00;;;3.50;33.60;;;;;;5111202;28;20759;-57
2022/12/14 09:48:19;;;;;;;36.33;32.97;;;3.30;34.60;;;;;;5111375;28;20419;-59
2022/12/14 09:50:50;;;;;;;37.50;34.50;;;3.20;34.90;;;;;;5111167;28;20423;-57
2022/12/14 09:53:17;;;;;;;35.90;33.30;;;3.20;34.80;;;;;;5111408;28;20920;-55
2022/12/14 09:55:48;;;;;;;37.57;34.50;;;3.30;34.80;;;;;;5110444;28;20451;-57
2022/12/14 09:58:18;;;;;;;37.70;34.70;;;3.30;35.10;;;;;;5111332;28;20807;-57
2022/12/14 10:01:21;;;;;;;38.83;35.83;;;3.20;35.20;;;;;;5110740;28;20935;-58
2022/12/14 10:04:11;;;;;;;35.43;32.23;;;3.20;35.20;;;;;;5111038;28;20763;-58
2022/12/14 10:07:29;;;;;;;37.60;34.67;;;3.30;35.10;;;;;;5110994;28;20415;-57
2022/12/14 10:10:15;;;;;;;38.33;34.87;;;3.10;37.00;;;;;;5056023;28;20419;-57
2022/12/14 10:13:00;;;;;;;35.23;32.50;;;3.50;37.00;;;;;;5110810;28;20427;-57
2022/12/14 10:15:29;;;;;;;38.03;35.03;;;3.90;35.30;;;;;;5090279;28;20463;-58
2022/12/14 10:17:57;;;;;;;35.63;32.90;;;4.10;34.30;;;;;;5104418;28;20427;-58
2022/12/14 10:20:38;;;;;;;38.20;35.10;;;4.40;33.40;;;;;;5110912;28;20412;-57
2022/12/14 10:23:08;;;;;;;37.10;33.83;;;4.40;32.50;;;;;;5110383;28;20411;-58
2022/12/14 10:25:36;;;;;;;38.83;35.93;;;4.10;33.40;;;;;;5110701;28;20412;-58
2022/12/14 10:28:27;;;;;;;36.17;33.43;;;4.00;34.60;;;;;;5110711;28;20436;-58
2022/12/14 10:30:59;;;;;;;36.67;33.80;;;4.00;34.80;;;;;;5071874;28;20444;-57
2022/12/14 10:33:30;;;;;;;37.80;34.90;;;4.20;34.90;;;;;;5110931;28;20450;-57
2022/12/14 10:36:19;;;;;;;37.77;34.73;;;4.40;34.20;;;;;;5111859;28;20607;-59
2022/12/14 10:39:01;;;;;;;37.13;33.97;;;4.50;34.00;;;;;;5090530;28;20468;-59
2022/12/14 10:41:33;;;;;;;39.13;35.83;;;4.60;33.60;;;;;;5090672;28;20416;-57
2022/12/14 10:44:36;;;;;;;36.03;33.17;;;4.50;33.90;;;;;;5090294;28;20509;-58
2022/12/14 10:47:07;;;;;;;38.00;35.10;;;4.10;34.70;;;;;;5090307;28;20413;-58
2022/12/14 10:49:42;;;;;;;37.50;34.40;;;3.70;36.10;;;;;;5090349;28;20408;-57
2022/12/14 10:52:20;;;;;;;36.07;33.33;;;3.50;37.20;;;;;;5090403;28;20421;-57
2022/12/14 10:54:49;;;;;;;36.87;34.13;;;3.50;37.30;;;;;;5090125;28;20408;-58
2022/12/14 10:57:21;;;;;;;42.97;39.73;;;3.70;37.10;;;;;;5090292;28;20416;-57
2022/12/14 10:59:47;;;;;;;39.57;36.13;;;3.70;36.60;;;;;;5090255;28;20425;-57
2022/12/14 11:02:21;;;;;;;39.33;36.43;;;4.00;37.70;;;;;;5105946;28;20423;-58
2022/12/14 11:04:55;;;;;;;37.80;34.83;;;4.30;36.50;;;;;;5110405;28;20922;-58
2022/12/14 11:07:24;;;;;;;37.20;34.00;;;4.30;35.20;;;;;;5110363;28;20458;-58
2022/12/14 11:09:49;;;;;;;38.03;34.60;;;4.30;35.00;;;;;;5110480;28;20416;-57
2022/12/14 11:12:21;;;;;;;38.27;35.23;;;4.20;35.00;;;;;;5110566;28;20584;-56
2022/12/14 11:14:52;;;;;;;37.90;35.10;;;4.00;34.70;;;;;;5110097;28;20541;-56
2022/12/14 11:17:35;;;;;;;33.67;31.17;;;3.80;36.40;;;;;;5110517;28;20416;-53
2022/12/14 11:20:09;;;;;;;38.70;35.70;;;3.70;37.40;;;;;;5110275;28;20542;-58
2022/12/14 11:22:43;;;;;;;38.30;35.40;;;3.60;36.80;;;;;;5110370;28;20407;-56
2022/12/14 11:25:29;;;;;;;37.47;34.57;;;3.50;37.40;;;;;;5110040;28;20785;-57
2022/12/14 11:27:57;;;;;;;40.60;37.50;;;3.40;38.90;;;;;;5110875;28;20922;-57
2022/12/14 11:30:23;;;;;;;41.03;37.80;;;3.70;38.20;;;;;;5113997;28;20819;-57
2022/12/14 11:32:49;;;;;;;38.23;35.33;;;4.10;37.70;;;;;;5114132;28;20447;-57
2022/12/14 11:35:19;;;;;;;39.80;36.80;;;4.30;36.10;;;;;;5113629;28;20811;-56
2022/12/14 11:37:48;;;;;;;39.53;36.63;;;4.50;35.40;;;;;;5113854;28;20431;-57
2022/12/14 11:40:23;;;;;;;49.63;45.40;;;4.70;34.60;;;;;;5114058;28;20423;-58
2022/12/14 11:42:52;;;;;;;42.63;39.13;;;4.90;33.80;;;;;;5113826;28;20460;-58
2022/12/14 11:45:24;;;;;;;40.33;37.00;;;4.90;33.30;;;;;;5113682;28;20503;-57
2022/12/14 11:48:14;;;;;;;40.00;36.83;;;4.70;34.50;;;;;;5113124;28;20446;-57
2022/12/14 11:50:45;;;;;;;38.67;35.67;;;4.70;34.30;;;;;;5110782;28;20415;-55
2022/12/14 11:53:13;;;;;;;41.30;38.20;;;4.80;34.00;;;;;;5114780;28;20408;-56
2022/12/14 11:55:55;;;;;;;38.70;35.80;;;4.70;33.50;;;;;;5110210;28;20955;-58
2022/12/14 11:58:30;;;;;;;38.63;35.77;;;4.60;34.00;;;;;;5111001;28;20412;-57
2022/12/14 12:01:15;;;;;;;40.93;37.93;;;4.60;34.50;;;;;;5113070;28;20507;-57
2022/12/14 12:03:43;;;;;;;51.03;46.50;;;4.60;34.80;;;;;;5110658;28;20456;-58
2022/12/14 12:06:12;;;;;;;86.17;76.93;;;4.70;35.10;;;;;;5113420;28;20416;-57
2022/12/14 12:08:40;;;;;;;47.83;43.83;;;4.80;37.00;;;;;;5113568;28;20407;-59
2022/12/14 12:11:21;;;;;;;40.20;37.17;;;4.90;35.50;;;;;;5113441;28;20412;-59
2022/12/14 12:13:51;;;;;;;40.73;37.73;;;5.00;34.20;;;;;;5113184;28;20419;-57
2022/12/14 12:16:21;;;;;;;37.90;34.97;;;5.10;33.90;;;;;;5113216;28;20455;-57
2022/12/14 12:18:59;;;;;;;39.07;35.93;;;5.10;33.50;;;;;;5107672;28;20432;-57
2022/12/14 12:21:28;;;;;;;39.67;36.53;;;5.10;33.00;;;;;;5092963;28;20772;-57
2022/12/14 12:24:19;;;;;;;39.47;36.27;;;5.20;32.60;;;;;;5092657;28;20461;-58
2022/12/14 12:26:47;;;;;;;39.93;36.80;;;5.20;33.00;;;;;;5092512;28;20776;-58
2022/12/14 12:29:22;;;;;;;41.37;38.20;;;5.30;32.10;;;;;;5092761;28;20412;-58
2022/12/14 12:31:51;;;;;;;39.10;36.07;;;5.40;31.50;;;;;;5092662;28;20947;-58
2022/12/14 12:34:24;;;;;;;41.03;37.73;;;5.40;31.50;;;;;;5092619;28;20603;-57
2022/12/14 12:36:52;;;;;;;38.60;35.60;;;5.40;31.20;;;;;;5093691;28;20471;-58
2022/12/14 12:39:23;;;;;;;40.40;37.17;;;5.40;31.70;;;;;;5092405;28;20413;-58
2022/12/14 12:42:09;;;;;;;41.53;38.17;;;5.50;30.80;;;;;;5092488;28;20507;-58
2022/12/14 12:45:07;;;;;;;39.23;36.43;;;5.40;30.60;;;;;;5092560;28;20416;-58
2022/12/14 12:47:52;;;;;;;39.80;36.80;;;5.40;31.00;;;;;;5092468;28;20755;-56
2022/12/14 12:50:37;;;;;;;39.40;36.20;;;5.50;30.80;;;;;;5101234;28;20474;-57
2022/12/14 12:53:15;;;;;;;41.20;38.00;;;5.50;31.30;;;;;;5112759;28;20781;-58
2022/12/14 12:55:50;;;;;;;39.57;36.40;;;5.50;30.50;;;;;;5112360;28;20515;-58
2022/12/14 12:58:28;;;;;;;39.93;36.93;;;5.50;30.70;;;;;;5112931;28;20407;-60
2022/12/14 13:01:01;;;;;;;39.77;36.77;;;5.50;30.80;;;;;;5112364;28;20415;-59
2022/12/14 13:03:44;;;;;;;39.23;36.03;;;5.50;30.70;;;;;;5113005;28;20415;-56
2022/12/14 13:06:20;;;;;;;39.07;35.97;;;5.40;30.90;;;;;;5112436;28;20424;-57
2022/12/14 13:08:54;;;;;;;42.40;38.90;;;5.40;30.70;;;;;;5112331;28;20421;-58
2022/12/14 13:11:26;;;;;;;38.60;35.60;;;5.50;31.60;;;;;;5112458;28;20419;-57